sensor_id;sensor_type;location;lat;lon;timestamp;P1;P2;P0
58740;PMS7003;44512;53.046;18.604;2023-08-20T00:02:33;35;31;22
58740;PMS7003;44512;53.046;18.604;2023-08-20T00:13:02;45;36;25
58740;PMS7003;44512;53.046;18.604;2023-08-20T00:23:30;41;32;23
58740;PMS7003;44512;53.046;18.604;2023-08-20T00:33:58;38;32;23
58740;PMS7003;44512;53.046;18.604;2023-08-20T00:44:27;39;33;23
58740;PMS7003;44512;53.046;18.604;2023-08-20T00:54:55;38;31;22
58740;PMS7003;44512;53.046;18.604;2023-08-20T01:05:24;39;34;24
58740;PMS7003;44512;53.046;18.604;2023-08-20T01:15:52;39;34;24
58740;PMS7003;44512;53.046;18.604;2023-08-20T01:36:49;43;36;25
58740;PMS7003;44512;53.046;18.604;2023-08-20T01:47:17;36;31;23
58740;PMS7003;44512;53.046;18.604;2023-08-20T01:57:46;43;34;24
58740;PMS7003;44512;53.046;18.604;2023-08-20T02:08:14;38;32;23
58740;PMS7003;44512;53.046;18.604;2023-08-20T02:18:42;48;37;26
58740;PMS7003;44512;53.046;18.604;2023-08-20T02:29:11;43;36;25
58740;PMS7003;44512;53.046;18.604;2023-08-20T02:39:39;45;38;26
58740;PMS7003;44512;53.046;18.604;2023-08-20T02:50:08;46;38;25
58740;PMS7003;44512;53.046;18.604;2023-08-20T03:00:36;39;34;24
58740;PMS7003;44512;53.046;18.604;2023-08-20T03:11:04;41;34;24
58740;PMS7003;44512;53.046;18.604;2023-08-20T03:21:33;44;34;24
58740;PMS7003;44512;53.046;18.604;2023-08-20T03:32:01;44;36;26
58740;PMS7003;44512;53.046;18.604;2023-08-20T03:42:29;45;36;26
58740;PMS7003;44512;53.046;18.604;2023-08-20T03:52:58;47;37;26
58740;PMS7003;44512;53.046;18.604;2023-08-20T04:03:26;48;40;27
58740;PMS7003;44512;53.046;18.604;2023-08-20T04:13:55;47;40;27
58740;PMS7003;44512;53.046;18.604;2023-08-20T04:24:23;49;39;28
58740;PMS7003;44512;53.046;18.604;2023-08-20T04:34:52;44;37;25
58740;PMS7003;44512;53.046;18.604;2023-08-20T04:45:20;50;42;28
58740;PMS7003;44512;53.046;18.604;2023-08-20T04:55:48;53;41;28
58740;PMS7003;44512;53.046;18.604;2023-08-20T05:06:17;54;42;28
58740;PMS7003;44512;53.046;18.604;2023-08-20T05:16:45;48;40;27
58740;PMS7003;44512;53.046;18.604;2023-08-20T05:27:14;48;41;27
58740;PMS7003;44512;53.046;18.604;2023-08-20T05:37:42;46;35;24
58740;PMS7003;44512;53.046;18.604;2023-08-20T05:48:10;43;36;24
58740;PMS7003;44512;53.046;18.604;2023-08-20T05:58:39;46;38;25
58740;PMS7003;44512;53.046;18.604;2023-08-20T06:09:07;45;38;26
58740;PMS7003;44512;53.046;18.604;2023-08-20T06:19:35;47;38;26
58740;PMS7003;44512;53.046;18.604;2023-08-20T06:30:04;40;34;24
58740;PMS7003;44512;53.046;18.604;2023-08-20T06:40:32;41;36;24
58740;PMS7003;44512;53.046;18.604;2023-08-20T07:01:29;40;35;25
58740;PMS7003;44512;53.046;18.604;2023-08-20T07:11:57;32;28;20
58740;PMS7003;44512;53.046;18.604;2023-08-20T07:22:26;31;28;20
58740;PMS7003;44512;53.046;18.604;2023-08-20T07:32:54;32;28;20
58740;PMS7003;44512;53.046;18.604;2023-08-20T07:43:23;32;29;22
58740;PMS7003;44512;53.046;18.604;2023-08-20T07:53:51;34;28;21
58740;PMS7003;44512;53.046;18.604;2023-08-20T08:04:19;34;30;22
58740;PMS7003;44512;53.046;18.604;2023-08-20T08:14:48;31;27;20
58740;PMS7003;44512;53.046;18.604;2023-08-20T08:25:16;31;27;20
58740;PMS7003;44512;53.046;18.604;2023-08-20T08:35:44;30;27;20
58740;PMS7003;44512;53.046;18.604;2023-08-20T08:46:13;32;27;19
58740;PMS7003;44512;53.046;18.604;2023-08-20T08:56:41;29;27;20
58740;PMS7003;44512;53.046;18.604;2023-08-20T09:07:13;27;23;17
58740;PMS7003;44512;53.046;18.604;2023-08-20T09:17:38;24;22;17
58740;PMS7003;44512;53.046;18.604;2023-08-20T09:28:06;23;22;16
58740;PMS7003;44512;53.046;18.604;2023-08-20T09:38:37;25;22;16
58740;PMS7003;44512;53.046;18.604;2023-08-20T09:49:03;24;21;15
58740;PMS7003;44512;53.046;18.604;2023-08-20T09:59:31;23;21;16
58740;PMS7003;44512;53.046;18.604;2023-08-20T10:10:03;19;18;13
58740;PMS7003;44512;53.046;18.604;2023-08-20T10:20:31;19;19;14
58740;PMS7003;44512;53.046;18.604;2023-08-20T10:41:28;20;19;14
58740;PMS7003;44512;53.046;18.604;2023-08-20T10:56:42;23;19;15
58740;PMS7003;44512;53.046;18.604;2023-08-20T11:07:07;21;20;15
58740;PMS7003;44512;53.046;18.604;2023-08-20T11:17:39;18;17;13
58740;PMS7003;44512;53.046;18.604;2023-08-20T11:28:04;19;17;13
58740;PMS7003;44512;53.046;18.604;2023-08-20T11:38:32;19;17;12
58740;PMS7003;44512;53.046;18.604;2023-08-20T11:49:02;16;15;11
58740;PMS7003;44512;53.046;18.604;2023-08-20T11:59:29;17;17;13
58740;PMS7003;44512;53.046;18.604;2023-08-20T12:09:57;15;14;11
58740;PMS7003;44512;53.046;18.604;2023-08-20T12:20:26;17;15;11
58740;PMS7003;44512;53.046;18.604;2023-08-20T12:30:54;17;17;14
58740;PMS7003;44512;53.046;18.604;2023-08-20T12:41:22;17;16;13
58740;PMS7003;44512;53.046;18.604;2023-08-20T12:51:50;18;16;12
58740;PMS7003;44512;53.046;18.604;2023-08-20T13:02:19;17;16;12
58740;PMS7003;44512;53.046;18.604;2023-08-20T13:12:48;16;15;12
58740;PMS7003;44512;53.046;18.604;2023-08-20T13:23:16;17;15;12
58740;PMS7003;44512;53.046;18.604;2023-08-20T13:33:45;18;15;12
58740;PMS7003;44512;53.046;18.604;2023-08-20T13:44:13;15;13;11
58740;PMS7003;44512;53.046;18.604;2023-08-20T13:54:46;16;16;11
58740;PMS7003;44512;53.046;18.604;2023-08-20T14:05:18;16;14;11
58740;PMS7003;44512;53.046;18.604;2023-08-20T14:15:47;19;15;12
58740;PMS7003;44512;53.046;18.604;2023-08-20T14:26:16;14;13;10
58740;PMS7003;44512;53.046;18.604;2023-08-20T14:36:44;13;13;11
58740;PMS7003;44512;53.046;18.604;2023-08-20T14:47:17;15;14;11
58740;PMS7003;44512;53.046;18.604;2023-08-20T14:57:45;15;14;11
58740;PMS7003;44512;53.046;18.604;2023-08-20T15:08:17;17;15;12
58740;PMS7003;44512;53.046;18.604;2023-08-20T15:18:45;10;10;8
58740;PMS7003;44512;53.046;18.604;2023-08-20T15:29:14;15;14;11
58740;PMS7003;44512;53.046;18.604;2023-08-20T15:39:43;14;13;10
58740;PMS7003;44512;53.046;18.604;2023-08-20T15:50:11;16;16;13
58740;PMS7003;44512;53.046;18.604;2023-08-20T16:00:40;13;12;10
58740;PMS7003;44512;53.046;18.604;2023-08-20T16:11:11;15;14;11
58740;PMS7003;44512;53.046;18.604;2023-08-20T16:21:44;17;15;12
58740;PMS7003;44512;53.046;18.604;2023-08-20T16:32:12;14;13;11
58740;PMS7003;44512;53.046;18.604;2023-08-20T16:42:44;16;16;13
58740;PMS7003;44512;53.046;18.604;2023-08-20T16:53:16;12;10;8
58740;PMS7003;44512;53.046;18.604;2023-08-20T17:03:49;13;12;10
58740;PMS7003;44512;53.046;18.604;2023-08-20T17:14:17;13;12;10
58740;PMS7003;44512;53.046;18.604;2023-08-20T17:24:45;10;10;8
58740;PMS7003;44512;53.046;18.604;2023-08-20T17:35:14;10;10;8
58740;PMS7003;44512;53.046;18.604;2023-08-20T17:45:42;12;11;9
58740;PMS7003;44512;53.046;18.604;2023-08-20T17:56:10;15;13;10
58740;PMS7003;44512;53.046;18.604;2023-08-20T18:06:39;14;13;10
58740;PMS7003;44512;53.046;18.604;2023-08-20T18:17:07;13;13;10
58740;PMS7003;44512;53.046;18.604;2023-08-20T18:27:35;16;14;10
58740;PMS7003;44512;53.046;18.604;2023-08-20T18:38:04;14;13;10
58740;PMS7003;44512;53.046;18.604;2023-08-20T18:48:32;12;11;8
58740;PMS7003;44512;53.046;18.604;2023-08-20T18:59:00;11;10;8
58740;PMS7003;44512;53.046;18.604;2023-08-20T19:09:29;9;9;7
58740;PMS7003;44512;53.046;18.604;2023-08-20T19:19:57;8;8;6
58740;PMS7003;44512;53.046;18.604;2023-08-20T19:30:25;9;9;7
58740;PMS7003;44512;53.046;18.604;2023-08-20T19:40:54;11;10;7
58740;PMS7003;44512;53.046;18.604;2023-08-20T19:51:22;11;10;8
58740;PMS7003;44512;53.046;18.604;2023-08-20T20:01:51;13;13;10
58740;PMS7003;44512;53.046;18.604;2023-08-20T20:12:19;13;12;10
58740;PMS7003;44512;53.046;18.604;2023-08-20T20:22:47;16;14;10
58740;PMS7003;44512;53.046;18.604;2023-08-20T20:33:15;18;14;10
58740;PMS7003;44512;53.046;18.604;2023-08-20T20:43:44;15;15;12
58740;PMS7003;44512;53.046;18.604;2023-08-20T20:54:12;15;14;11
58740;PMS7003;44512;53.046;18.604;2023-08-20T21:04:40;17;14;11
58740;PMS7003;44512;53.046;18.604;2023-08-20T21:15:09;17;17;13
58740;PMS7003;44512;53.046;18.604;2023-08-20T21:25:37;17;16;12
58740;PMS7003;44512;53.046;18.604;2023-08-20T21:36:05;16;13;10
58740;PMS7003;44512;53.046;18.604;2023-08-20T21:46:34;16;16;12
58740;PMS7003;44512;53.046;18.604;2023-08-20T21:57:06;15;13;11
58740;PMS7003;44512;53.046;18.604;2023-08-20T22:07:30;19;15;12
58740;PMS7003;44512;53.046;18.604;2023-08-20T22:17:59;18;15;11
58740;PMS7003;44512;53.046;18.604;2023-08-20T22:28:27;17;15;12
58740;PMS7003;44512;53.046;18.604;2023-08-20T22:38:55;16;15;13
58740;PMS7003;44512;53.046;18.604;2023-08-20T22:49:24;16;15;12
58740;PMS7003;44512;53.046;18.604;2023-08-20T22:59:52;21;18;13
58740;PMS7003;44512;53.046;18.604;2023-08-20T23:10:20;20;17;15
58740;PMS7003;44512;53.046;18.604;2023-08-20T23:20:53;19;16;13
58740;PMS7003;44512;53.046;18.604;2023-08-20T23:31:17;26;22;16
58740;PMS7003;44512;53.046;18.604;2023-08-20T23:41:45;21;20;16
58740;PMS7003;44512;53.046;18.604;2023-08-20T23:52:14;25;23;17
